Midsummer Dream — WDI2226 — position and weather

sailwx.info

Track history (hours):
 
Tides and Currents Weather Stations Pressure Air Temp Water Temp Dewpoint Dewpoint Depression Visibility Wind Speed Wind Dir Waves Ship Positions

Midsummer Dream

Owner: R and R Marine, LLC, Sitka, AK. More information available from US FCC via Universal Licensing System and Coast Guard Vessel Documentation Center.

Last reported at 2018-Jun-20 23:35 UTC. Time now 2018-Jul-17 23:10 UTC.
Position N 52°06' W 128°07'.
Warning: this ship's position is 26 days out of date.

Length 23 m.

Type: Pleasure craft. MMSI: 338223365.

Date/timePositionNaut miles runAvg speedWind from/ knotsBaromVisibWave heightAir tempDewpointWater temp
2018-Jun-20 23:35N 52°06' W 128°07'111.4
2018-Jun-20 23:29N 52°05' W 128°06'14 9.0
2018-Jun-20 21:54N 51°52' W 127°57'512.3
2018-Jun-20 21:30N 51°47' W 127°56'612.1
2018-Jun-20 21:00N 51°41' W 127°56'612.1
2018-Jun-20 20:30N 51°35' W 127°53'3510.5
2018-Jun-20 17:10N 51°02' W 127°39'310.0
2018-Jun-20 16:52N 50°60' W 127°35'410.2
2018-Jun-20 16:30N 50°58' W 127°30'611.1
2018-Jun-20 16:00N 50°54' W 127°23'88 7.6
2018-Jun-20 04:31N 50°12' W 125°22'111.1
2018-Jun-20 04:28N 50°11' W 125°22'3 7.6
2018-Jun-20 04:00N 50°08' W 125°21'5 8.1
2018-Jun-20 03:25N 50°05' W 125°16'3 7.3
2018-Jun-20 03:00N 50°02' W 125°14'108 9.9
2018-Jun-19 16:03N 48°43' W 123°21'20 7.6
2018-Jun-19 13:24N 48°35' W 122°53'1110.2
2018-Jun-19 12:21N 48°31' W 122°38'1 2.9
2018-Jun-19 11:59N 48°31' W 122°36'0 0.0
2018-Jun-19 11:29N 48°31' W 122°36'0 0.0
2018-Jun-19 10:59N 48°31' W 122°36'0 0.0
2018-Jun-19 10:29N 48°31' W 122°36'0 0.0
2018-Jun-19 09:59N 48°31' W 122°36'0 0.0
2018-Jun-19 09:29N 48°31' W 122°36'0 0.0
2018-Jun-19 08:53N 48°31' W 122°36'0 0.0
2018-Jun-19 08:29N 48°31' W 122°36'0 0.0
2018-Jun-19 07:59N 48°31' W 122°36'0 0.0
2018-Jun-19 07:23N 48°31' W 122°36'0 0.0
2018-Jun-19 06:59N 48°31' W 122°36'0 0.0
2018-Jun-19 06:23N 48°31' W 122°36'0 0.0
2018-Jun-19 05:59N 48°31' W 122°36'0 0.0
2018-Jun-19 05:29N 48°31' W 122°36'0 0.0
2018-Jun-19 04:59N 48°31' W 122°36'0 0.0
2018-Jun-19 04:23N 48°31' W 122°36'0 0.0
2018-Jun-19 03:59N 48°31' W 122°36'0 0.0
2018-Jun-19 03:29N 48°31' W 122°36'0 0.0
2018-Jun-19 02:59N 48°31' W 122°36'0 0.0
2018-Jun-19 02:29N 48°31' W 122°36'0 0.0
2018-Jun-19 01:59N 48°31' W 122°36'0 0.0
2018-Jun-19 01:21N 48°31' W 122°36'0 0.0
2018-Jun-19 00:57N 48°31' W 122°36'0 0.0
2018-Jun-19 00:27N 48°31' W 122°36'0 0.0
2018-Jun-18 23:57N 48°31' W 122°36'0 0.0
2018-Jun-18 23:27N 48°31' W 122°36'0 0.0
2018-Jun-18 22:57N 48°31' W 122°36'0 0.0
2018-Jun-18 22:27N 48°31' W 122°36'0 0.0
2018-Jun-18 21:57N 48°31' W 122°36'0 0.0
2018-Jun-18 21:27N 48°31' W 122°36'0 0.0
2018-Jun-18 20:57N 48°31' W 122°36'0 0.0
2018-Jun-18 20:27N 48°31' W 122°36'0 0.0
2018-Jun-18 19:45N 48°31' W 122°36'0 0.0
2018-Jun-18 19:21N 48°31' W 122°36'0 0.0
2018-Jun-18 18:57N 48°31' W 122°36'0 0.0
2018-Jun-18 18:27N 48°31' W 122°36'0 0.0
2018-Jun-18 17:57N 48°31' W 122°36'0 0.0
2018-Jun-18 17:27N 48°31' W 122°36'0 0.0
2018-Jun-18 16:51N 48°31' W 122°36'0 0.0
2018-Jun-18 16:27N 48°31' W 122°36'0 0.0
2018-Jun-18 15:51N 48°31' W 122°36'0 0.0
2018-Jun-18 15:15N 48°31' W 122°36'0 0.0
2018-Jun-18 14:57N 48°31' W 122°36'0 0.0
2018-Jun-18 14:27N 48°31' W 122°36'0 0.0
2018-Jun-18 13:57N 48°31' W 122°36'0 0.0
2018-Jun-18 13:27N 48°31' W 122°36'0 0.0
2018-Jun-18 12:57N 48°31' W 122°36'0 0.0
2018-Jun-18 12:27N 48°31' W 122°36'0 0.0
2018-Jun-18 11:57N 48°31' W 122°36'0 0.0
2018-Jun-18 11:09N 48°31' W 122°36'0 0.0
2018-Jun-18 10:57N 48°31' W 122°36'0 0.0
2018-Jun-18 10:27N 48°31' W 122°36'0 0.0
2018-Jun-18 09:57N 48°31' W 122°36'0 0.0
2018-Jun-18 09:21N 48°31' W 122°36'0 0.0
2018-Jun-18 08:57N 48°31' W 122°36'0 0.0
2018-Jun-18 08:27N 48°31' W 122°36'0 0.0
2018-Jun-18 07:45N 48°31' W 122°36'0 0.0
2018-Jun-18 07:28N 48°31' W 122°36'0 0.0
2018-Jun-18 06:57N 48°31' W 122°36'0 0.0
2018-Jun-18 06:15N 48°31' W 122°36'0 0.0
2018-Jun-18 05:51N 48°31' W 122°36'0 0.0
2018-Jun-18 05:27N 48°31' W 122°36'0 0.0
2018-Jun-18 04:57N 48°31' W 122°36'0 0.0
2018-Jun-18 04:27N 48°31' W 122°36'0 0.0
2018-Jun-18 03:57N 48°31' W 122°36'0 0.0
2018-Jun-18 03:28N 48°31' W 122°36'0 0.0
2018-Jun-18 02:57N 48°31' W 122°36'0 0.0
2018-Jun-18 02:27N 48°31' W 122°36'0 0.0
2018-Jun-18 01:57N 48°31' W 122°36'0 0.0
2018-Jun-18 01:28N 48°31' W 122°36'0 0.0
2018-Jun-18 00:57N 48°31' W 122°36'0 0.0
2018-Jun-18 00:30N 48°31' W 122°36'0 0.0
2018-Jun-18 00:00N 48°31' W 122°36'0 0.0
2018-Jun-17 23:18N 48°31' W 122°36'0 0.0
2018-Jun-17 23:00N 48°31' W 122°36'0 0.0
2018-Jun-17 22:30N 48°31' W 122°36'0 0.0
2018-Jun-17 22:00N 48°31' W 122°36'0 0.0
2018-Jun-17 21:30N 48°31' W 122°36'0 0.0
2018-Jun-17 21:00N 48°31' W 122°36'0 0.0
2018-Jun-17 20:24N 48°31' W 122°36'0 0.0
2018-Jun-17 19:48N 48°31' W 122°36'0 0.0
2018-Jun-17 19:30N 48°31' W 122°36'0 0.0
2018-Jun-17 18:48N 48°31' W 122°36'0 0.0
2018-Jun-17 18:30N 48°31' W 122°36'0 0.0
2018-Jun-17 18:00N 48°31' W 122°36'0 0.0
2018-Jun-17 17:24N 48°31' W 122°36'0 0.0
2018-Jun-17 17:00N 48°31' W 122°36'0 0.0
2018-Jun-17 16:30N 48°31' W 122°36'0 0.0
2018-Jun-17 15:24N 48°31' W 122°36'0 0.0
2018-Jun-17 15:00N 48°31' W 122°36'0 0.0
2018-Jun-17 14:30N 48°31' W 122°36'0 0.0
2018-Jun-17 13:48N 48°31' W 122°36'0 0.0
2018-Jun-17 13:30N 48°31' W 122°36'0 0.0
2018-Jun-17 12:48N 48°31' W 122°36'0 0.0
2018-Jun-17 12:30N 48°31' W 122°36'0 0.0
2018-Jun-17 11:54N 48°31' W 122°36'0 0.0
2018-Jun-17 11:18N 48°31' W 122°36'0 0.0
2018-Jun-17 10:54N 48°31' W 122°36'0 0.0
2018-Jun-17 10:18N 48°31' W 122°36'0 0.0
2018-Jun-17 10:00N 48°31' W 122°36'0 0.0
2018-Jun-17 09:30N 48°31' W 122°36'0 0.0
2018-Jun-17 09:00N 48°31' W 122°36'0 0.0
2018-Jun-17 08:30N 48°31' W 122°36'0 0.0
2018-Jun-17 07:54N 48°31' W 122°36'0 0.0
2018-Jun-17 07:24N 48°31' W 122°36'0 0.0
2018-Jun-17 07:00N 48°31' W 122°36'0 0.0
2018-Jun-17 05:48N 48°31' W 122°36'0 0.0
2018-Jun-17 05:24N 48°31' W 122°36'0 0.0
2018-Jun-17 05:00N 48°31' W 122°36'0 0.0
2018-Jun-17 04:30N 48°31' W 122°36'0 0.0
2018-Jun-17 04:00N 48°31' W 122°36'0 0.0
2018-Jun-17 03:30N 48°31' W 122°36'0 0.0
2018-Jun-17 03:00N 48°31' W 122°36'0 0.0
2018-Jun-17 02:18N 48°31' W 122°36'0 0.0
2018-Jun-17 02:00N 48°31' W 122°36'0 0.0
2018-Jun-17 01:30N 48°31' W 122°36'0 0.0
2018-Jun-17 01:00N 48°31' W 122°36'0 0.0
2018-Jun-17 00:30N 48°31' W 122°36'0 0.0
2018-Jun-17 00:00N 48°31' W 122°36'0 0.0
2018-Jun-16 23:30N 48°31' W 122°36'0 0.0
2018-Jun-16 23:00N 48°31' W 122°36'0 0.0
2018-Jun-16 22:30N 48°31' W 122°36'0 0.0
2018-Jun-16 22:00N 48°31' W 122°36'0 0.0
2018-Jun-16 21:30N 48°31' W 122°36'0 0.0
2018-Jun-16 20:48N 48°31' W 122°36'0 0.0
2018-Jun-16 20:24N 48°31' W 122°36'0 0.0
2018-Jun-16 20:00N 48°31' W 122°36'0 0.0
2018-Jun-16 19:30N 48°31' W 122°36'0 0.0
2018-Jun-16 19:00N 48°31' W 122°36'0 0.0
2018-Jun-16 18:30N 48°31' W 122°36'0 0.0
2018-Jun-16 18:00N 48°31' W 122°36'0 0.0
2018-Jun-16 17:18N 48°31' W 122°36'0 0.0
2018-Jun-16 16:54N 48°31' W 122°36'0 0.0
2018-Jun-16 16:30N 48°31' W 122°36'0 0.0
2018-Jun-16 15:54N 48°31' W 122°36'0 0.0
2018-Jun-16 15:24N 48°31' W 122°36'0 0.0
2018-Jun-16 15:00N 48°31' W 122°36'0 0.0
2018-Jun-16 14:30N 48°31' W 122°36'0 0.0
2018-Jun-16 13:24N 48°31' W 122°36'0 0.0
2018-Jun-16 13:00N 48°31' W 122°36'0 0.0
2018-Jun-16 12:24N 48°31' W 122°36'0 0.0
2018-Jun-16 12:00N 48°31' W 122°36'0 0.0
2018-Jun-16 11:30N 48°31' W 122°36'0 0.0
2018-Jun-16 10:54N 48°31' W 122°36'0 0.0
2018-Jun-16 10:30N 48°31' W 122°36'0 0.0
2018-Jun-16 10:00N 48°31' W 122°36'0 0.0
2018-Jun-16 09:30N 48°31' W 122°36'0 0.0
2018-Jun-16 08:48N 48°31' W 122°36'0 0.0
2018-Jun-16 08:24N 48°31' W 122°36'0 0.0
2018-Jun-16 08:00N 48°31' W 122°36'0 0.0
2018-Jun-16 07:24N 48°31' W 122°36'0 0.0
2018-Jun-16 07:00N 48°31' W 122°36'0 0.0
2018-Jun-16 06:30N 48°31' W 122°36'0 0.0
2018-Jun-16 06:00N 48°31' W 122°36'0 0.0
2018-Jun-16 05:30N 48°31' W 122°36'0 0.0
2018-Jun-16 04:54N 48°31' W 122°36'0 0.0
2018-Jun-16 04:24N 48°31' W 122°36'0 0.0
2018-Jun-16 04:00N 48°31' W 122°36'0 0.0
2018-Jun-16 03:30N 48°31' W 122°36'0 0.0
2018-Jun-16 03:00N 48°31' W 122°36'0 0.0
2018-Jun-16 02:30N 48°31' W 122°36'0 0.0
2018-Jun-16 02:00N 48°31' W 122°36'0 0.0
2018-Jun-16 01:24N 48°31' W 122°36'0 0.0
2018-Jun-16 01:00N 48°31' W 122°36'0 0.0
2018-Jun-16 00:30N 48°31' W 122°36'0 0.0
2018-Jun-16 00:00N 48°31' W 122°36'0 0.0
2018-Jun-15 23:30N 48°31' W 122°36'0 0.0
2018-Jun-15 22:54N 48°31' W 122°36'0 0.0
2018-Jun-15 22:30N 48°31' W 122°36'0 0.0
2018-Jun-15 21:54N 48°31' W 122°36'0 0.0
2018-Jun-15 21:18N 48°31' W 122°36'0 0.0
2018-Jun-15 20:54N 48°31' W 122°36'0 0.0
2018-Jun-15 20:30N 48°31' W 122°36'0 0.0
2018-Jun-15 19:42N 48°31' W 122°36'0 0.0
2018-Jun-15 19:30N 48°31' W 122°36'0 0.0
2018-Jun-15 19:00N 48°31' W 122°36'0 0.0
2018-Jun-15 18:24N 48°31' W 122°36'0 0.0
2018-Jun-15 17:48N 48°31' W 122°36'0 0.0
2018-Jun-15 17:30N 48°31' W 122°36'0 0.0
2018-Jun-15 17:00N 48°31' W 122°36'0 0.0
2018-Jun-15 16:18N 48°31' W 122°36'0 0.0
2018-Jun-15 16:00N 48°31' W 122°36'0 0.0
2018-Jun-15 15:18N 48°31' W 122°36'0 0.0
2018-Jun-15 15:00N 48°31' W 122°36'0 0.0
2018-Jun-15 14:18N 48°31' W 122°36'0 0.0
2018-Jun-15 13:49N 48°31' W 122°36'0 0.0
2018-Jun-15 13:19N 48°31' W 122°36'0 0.0
2018-Jun-15 12:55N 48°31' W 122°36'0 0.0
2018-Jun-15 12:25N 48°31' W 122°36'0 0.0
2018-Jun-15 11:55N 48°31' W 122°36'0 0.0
2018-Jun-15 11:25N 48°31' W 122°36'0 0.0
2018-Jun-15 10:55N 48°31' W 122°36'0 0.0
2018-Jun-15 10:25N 48°31' W 122°36'0 0.0
2018-Jun-15 09:55N 48°31' W 122°36'0 0.0
2018-Jun-15 09:25N 48°31' W 122°36'0 0.0
2018-Jun-15 08:55N 48°31' W 122°36'0 0.0
2018-Jun-15 08:25N 48°31' W 122°36'0 0.0
2018-Jun-15 07:49N 48°31' W 122°36'0 0.0
2018-Jun-15 07:25N 48°31' W 122°36'0 0.0
2018-Jun-15 06:55N 48°31' W 122°36'0 0.0
2018-Jun-15 06:25N 48°31' W 122°36'0 0.0
2018-Jun-15 05:55N 48°31' W 122°36'0 0.0
2018-Jun-15 05:19N 48°31' W 122°36'0 0.0
2018-Jun-15 04:55N 48°31' W 122°36'0 0.0
2018-Jun-15 04:19N 48°31' W 122°36'0 0.0
2018-Jun-15 03:55N 48°31' W 122°36'0 0.0
2018-Jun-15 03:19N 48°31' W 122°36'0 0.0
2018-Jun-15 02:55N 48°31' W 122°36'0 0.0
2018-Jun-15 02:25N 48°31' W 122°36'0 0.0
2018-Jun-15 01:55N 48°31' W 122°36'0 0.0
2018-Jun-15 01:25N 48°31' W 122°36'0 0.0
2018-Jun-15 00:49N 48°31' W 122°36'0 0.0
2018-Jun-15 00:25N 48°31' W 122°36'0 0.0
2018-Jun-14 23:55N 48°31' W 122°36'0 0.0
2018-Jun-14 23:25N 48°31' W 122°36'0 0.0
2018-Jun-14 22:49N 48°31' W 122°36'0 0.0
2018-Jun-14 22:25N 48°31' W 122°36'0 0.0
2018-Jun-14 21:55N 48°31' W 122°36'0 0.0
2018-Jun-14 21:25N 48°31' W 122°36'0 0.0
2018-Jun-14 20:55N 48°31' W 122°36'0 0.0
2018-Jun-14 20:19N 48°31' W 122°36'0 0.0
2018-Jun-14 19:55N 48°31' W 122°36'0 0.0
2018-Jun-14 19:19N 48°31' W 122°36'0 0.0
2018-Jun-14 18:55N 48°31' W 122°36'0 0.0
2018-Jun-14 18:25N 48°31' W 122°36'0 0.0
2018-Jun-14 17:55N 48°31' W 122°36'0 0.0
2018-Jun-14 17:25N 48°31' W 122°36'0 0.0
2018-Jun-14 16:55N 48°31' W 122°36'0 0.0
2018-Jun-14 16:25N 48°31' W 122°36'0 0.0
2018-Jun-14 15:55N 48°31' W 122°36'0 0.0
2018-Jun-14 15:25N 48°31' W 122°36'0 0.0
2018-Jun-14 14:55N 48°31' W 122°36'0 0.0
2018-Jun-14 14:25N 48°31' W 122°36'0 0.0
2018-Jun-14 13:55N 48°31' W 122°36'0 0.0
2018-Jun-14 13:25N 48°31' W 122°36'0 0.0
2018-Jun-14 12:55N 48°31' W 122°36'0 0.0
2018-Jun-14 12:25N 48°31' W 122°36'0 0.0
2018-Jun-14 11:55N 48°31' W 122°36'0 0.0
2018-Jun-14 11:25N 48°31' W 122°36'0 0.0
2018-Jun-14 10:55N 48°31' W 122°36'0 0.0
2018-Jun-14 10:25N 48°31' W 122°36'0 0.0
2018-Jun-14 09:55N 48°31' W 122°36'0 0.0
2018-Jun-14 09:25N 48°31' W 122°36'0 0.0
2018-Jun-14 08:55N 48°31' W 122°36'0 0.0
2018-Jun-14 08:07N 48°31' W 122°36'0 0.0
2018-Jun-14 07:49N 48°31' W 122°36'0 0.0
2018-Jun-14 07:25N 48°31' W 122°36'0 0.0
2018-Jun-14 06:37N 48°31' W 122°36'0 0.0
2018-Jun-14 06:19N 48°31' W 122°36'0 0.0
2018-Jun-14 05:55N 48°31' W 122°36'0 0.0
2018-Jun-14 05:25N 48°31' W 122°36'0 0.0
2018-Jun-14 04:49N 48°31' W 122°36'0 0.0
2018-Jun-14 04:25N 48°31' W 122°36'0 0.0
2018-Jun-14 03:55N 48°31' W 122°36'0 0.0
2018-Jun-14 02:43N 48°31' W 122°36'0 0.0
2018-Jun-14 02:25N 48°31' W 122°36'0 0.0
2018-Jun-14 01:55N 48°31' W 122°36'0 0.0
2018-Jun-14 01:19N 48°31' W 122°36'0 0.0
2018-Jun-14 00:55N 48°31' W 122°36'0 0.0
2018-Jun-14 00:25N 48°31' W 122°36'0 0.0
2018-Jun-13 23:55N 48°31' W 122°36'0 0.0
2018-Jun-13 23:25N 48°31' W 122°36'0 0.0
2018-Jun-13 22:55N 48°31' W 122°36'0 0.0
2018-Jun-13 22:25N 48°31' W 122°36'0 0.0
2018-Jun-13 21:49N 48°31' W 122°36'0 0.0
2018-Jun-13 21:13N 48°31' W 122°36'0 0.0
2018-Jun-13 20:55N 48°31' W 122°36'0 0.0
2018-Jun-13 20:25N 48°31' W 122°36'0 0.0
2018-Jun-13 19:55N 48°31' W 122°36'0 0.0
2018-Jun-13 19:19N 48°31' W 122°36'0 0.0
2018-Jun-13 18:55N 48°31' W 122°36'0 0.0
2018-Jun-13 18:25N 48°31' W 122°36'0 0.0
2018-Jun-13 17:49N 48°31' W 122°36'0 0.0
2018-Jun-13 17:19N 48°31' W 122°36'0 0.0
2018-Jun-13 16:55N 48°31' W 122°36'0 0.0
2018-Jun-13 16:19N 48°31' W 122°36'0 0.0
2018-Jun-13 15:55N 48°31' W 122°36'0 0.0
2018-Jun-13 15:07N 48°31' W 122°36'0 0.0
2018-Jun-13 14:49N 48°31' W 122°36'0 0.0
2018-Jun-13 14:25N 48°31' W 122°36'0 0.0
2018-Jun-13 13:49N 48°31' W 122°36'0 0.0
2018-Jun-13 13:19N 48°31' W 122°36'0 0.0
2018-Jun-13 12:55N 48°31' W 122°36'0 0.0
2018-Jun-13 12:25N 48°31' W 122°36'0 0.0
2018-Jun-13 11:55N 48°31' W 122°36'0 0.0
2018-Jun-13 11:25N 48°31' W 122°36'0 0.0
2018-Jun-13 10:55N 48°31' W 122°36'0 0.0
2018-Jun-13 10:19N 48°31' W 122°36'0 0.0
2018-Jun-13 09:55N 48°31' W 122°36'0 0.0
2018-Jun-13 09:25N 48°31' W 122°36'0 0.0
2018-Jun-13 08:55N 48°31' W 122°36'0 0.0
2018-Jun-13 08:25N 48°31' W 122°36'0 0.0
2018-Jun-13 07:55N 48°31' W 122°36'0 0.0
2018-Jun-13 07:25N 48°31' W 122°36'0 0.0
2018-Jun-13 06:49N 48°31' W 122°36'0 0.0
2018-Jun-13 06:25N 48°31' W 122°36'0 0.0
2018-Jun-13 05:55N 48°31' W 122°36'0 0.0
2018-Jun-13 05:25N 48°31' W 122°36'0 0.0
2018-Jun-13 04:49N 48°31' W 122°36'0 0.0
2018-Jun-13 04:25N 48°31' W 122°36'0 0.0
2018-Jun-13 03:55N 48°31' W 122°36'0 0.0
2018-Jun-13 03:19N 48°31' W 122°36'0 0.0
2018-Jun-13 02:55N 48°31' W 122°36'0 0.0
2018-Jun-13 02:19N 48°31' W 122°36'0 0.0
2018-Jun-13 01:49N 48°31' W 122°36'0 0.0
2018-Jun-13 01:25N 48°31' W 122°36'0 0.0
2018-Jun-13 00:49N 48°31' W 122°36'0 0.0
2018-Jun-13 00:25N 48°31' W 122°36'0 0.0
2018-Jun-12 23:55N 48°31' W 122°36'0 0.0
2018-Jun-12 23:29N 48°31' W 122°36'0 0.0
2018-Jun-12 22:59N 48°31' W 122°36'0 0.0
2018-Jun-12 22:29N 48°31' W 122°36'0 0.0
2018-Jun-12 21:59N 48°31' W 122°36'0 0.0
2018-Jun-12 21:29N 48°31' W 122°36'0 0.0
2018-Jun-12 20:55N 48°31' W 122°36'0 0.2
2018-Jun-12 20:29N 48°31' W 122°36'0 0.1
2018-Jun-12 19:59N 48°31' W 122°36'0 0.2
2018-Jun-12 19:27N 48°31' W 122°36'0 0.0
2018-Jun-12 18:57N 48°31' W 122°36'0 0.0
2018-Jun-12 18:27N 48°31' W 122°36'0 0.0
2018-Jun-12 17:57N 48°31' W 122°36'1 1.3
2018-Jun-12 17:27N 48°31' W 122°36'8 8.2
2018-Jun-12 16:27N 48°32' W 122°48'  
Track history (hours):
 
Tides and Currents Weather Stations Pressure Air Temp Water Temp Dewpoint Dewpoint Depression Visibility Wind Speed Wind Dir Waves Ship Positions

Midsummer Dream

Owner: R and R Marine, LLC, Sitka, AK. More information available from US FCC via Universal Licensing System and Coast Guard Vessel Documentation Center.

Last reported at 2018-Jun-20 23:35 UTC. Time now 2018-Jul-17 23:10 UTC.
Position N 52°06' W 128°07'.
Warning: this ship's position is 26 days out of date.

Length 23 m.

Type: Pleasure craft. MMSI: 338223365.

Date/timePositionNaut miles runAvg speedWind from/ knotsBaromVisibWave heightAir tempDewpointWater temp
2018-Jun-20 23:35N 52°06' W 128°07'111.4
2018-Jun-20 23:29N 52°05' W 128°06'14 9.0
2018-Jun-20 21:54N 51°52' W 127°57'512.3
2018-Jun-20 21:30N 51°47' W 127°56'612.1
2018-Jun-20 21:00N 51°41' W 127°56'612.1
2018-Jun-20 20:30N 51°35' W 127°53'3510.5
2018-Jun-20 17:10N 51°02' W 127°39'310.0
2018-Jun-20 16:52N 50°60' W 127°35'410.2
2018-Jun-20 16:30N 50°58' W 127°30'611.1
2018-Jun-20 16:00N 50°54' W 127°23'88 7.6
2018-Jun-20 04:31N 50°12' W 125°22'111.1
2018-Jun-20 04:28N 50°11' W 125°22'3 7.6
2018-Jun-20 04:00N 50°08' W 125°21'5 8.1
2018-Jun-20 03:25N 50°05' W 125°16'3 7.3
2018-Jun-20 03:00N 50°02' W 125°14'108 9.9
2018-Jun-19 16:03N 48°43' W 123°21'20 7.6
2018-Jun-19 13:24N 48°35' W 122°53'1110.2
2018-Jun-19 12:21N 48°31' W 122°38'1 2.9
2018-Jun-19 11:59N 48°31' W 122°36'0 0.0
2018-Jun-19 11:29N 48°31' W 122°36'0 0.0
2018-Jun-19 10:59N 48°31' W 122°36'0 0.0
2018-Jun-19 10:29N 48°31' W 122°36'0 0.0
2018-Jun-19 09:59N 48°31' W 122°36'0 0.0
2018-Jun-19 09:29N 48°31' W 122°36'0 0.0
2018-Jun-19 08:53N 48°31' W 122°36'0 0.0
2018-Jun-19 08:29N 48°31' W 122°36'0 0.0
2018-Jun-19 07:59N 48°31' W 122°36'0 0.0
2018-Jun-19 07:23N 48°31' W 122°36'0 0.0
2018-Jun-19 06:59N 48°31' W 122°36'0 0.0
2018-Jun-19 06:23N 48°31' W 122°36'0 0.0
2018-Jun-19 05:59N 48°31' W 122°36'0 0.0
2018-Jun-19 05:29N 48°31' W 122°36'0 0.0
2018-Jun-19 04:59N 48°31' W 122°36'0 0.0
2018-Jun-19 04:23N 48°31' W 122°36'0 0.0
2018-Jun-19 03:59N 48°31' W 122°36'0 0.0
2018-Jun-19 03:29N 48°31' W 122°36'0 0.0
2018-Jun-19 02:59N 48°31' W 122°36'0 0.0
2018-Jun-19 02:29N 48°31' W 122°36'0 0.0
2018-Jun-19 01:59N 48°31' W 122°36'0 0.0
2018-Jun-19 01:21N 48°31' W 122°36'0 0.0
2018-Jun-19 00:57N 48°31' W 122°36'0 0.0
2018-Jun-19 00:27N 48°31' W 122°36'0 0.0
2018-Jun-18 23:57N 48°31' W 122°36'0 0.0
2018-Jun-18 23:27N 48°31' W 122°36'0 0.0
2018-Jun-18 22:57N 48°31' W 122°36'0 0.0
2018-Jun-18 22:27N 48°31' W 122°36'0 0.0
2018-Jun-18 21:57N 48°31' W 122°36'0 0.0
2018-Jun-18 21:27N 48°31' W 122°36'0 0.0
2018-Jun-18 20:57N 48°31' W 122°36'0 0.0
2018-Jun-18 20:27N 48°31' W 122°36'0 0.0
2018-Jun-18 19:45N 48°31' W 122°36'0 0.0
2018-Jun-18 19:21N 48°31' W 122°36'0 0.0
2018-Jun-18 18:57N 48°31' W 122°36'0 0.0
2018-Jun-18 18:27N 48°31' W 122°36'0 0.0
2018-Jun-18 17:57N 48°31' W 122°36'0 0.0
2018-Jun-18 17:27N 48°31' W 122°36'0 0.0
2018-Jun-18 16:51N 48°31' W 122°36'0 0.0
2018-Jun-18 16:27N 48°31' W 122°36'0 0.0
2018-Jun-18 15:51N 48°31' W 122°36'0 0.0
2018-Jun-18 15:15N 48°31' W 122°36'0 0.0
2018-Jun-18 14:57N 48°31' W 122°36'0 0.0
2018-Jun-18 14:27N 48°31' W 122°36'0 0.0
2018-Jun-18 13:57N 48°31' W 122°36'0 0.0
2018-Jun-18 13:27N 48°31' W 122°36'0 0.0
2018-Jun-18 12:57N 48°31' W 122°36'0 0.0
2018-Jun-18 12:27N 48°31' W 122°36'0 0.0
2018-Jun-18 11:57N 48°31' W 122°36'0 0.0
2018-Jun-18 11:09N 48°31' W 122°36'0 0.0
2018-Jun-18 10:57N 48°31' W 122°36'0 0.0
2018-Jun-18 10:27N 48°31' W 122°36'0 0.0
2018-Jun-18 09:57N 48°31' W 122°36'0 0.0
2018-Jun-18 09:21N 48°31' W 122°36'0 0.0
2018-Jun-18 08:57N 48°31' W 122°36'0 0.0
2018-Jun-18 08:27N 48°31' W 122°36'0 0.0
2018-Jun-18 07:45N 48°31' W 122°36'0 0.0
2018-Jun-18 07:28N 48°31' W 122°36'0 0.0
2018-Jun-18 06:57N 48°31' W 122°36'0 0.0
2018-Jun-18 06:15N 48°31' W 122°36'0 0.0
2018-Jun-18 05:51N 48°31' W 122°36'0 0.0
2018-Jun-18 05:27N 48°31' W 122°36'0 0.0
2018-Jun-18 04:57N 48°31' W 122°36'0 0.0
2018-Jun-18 04:27N 48°31' W 122°36'0 0.0
2018-Jun-18 03:57N 48°31' W 122°36'0 0.0
2018-Jun-18 03:28N 48°31' W 122°36'0 0.0
2018-Jun-18 02:57N 48°31' W 122°36'0 0.0
2018-Jun-18 02:27N 48°31' W 122°36'0 0.0
2018-Jun-18 01:57N 48°31' W 122°36'0 0.0
2018-Jun-18 01:28N 48°31' W 122°36'0 0.0
2018-Jun-18 00:57N 48°31' W 122°36'0 0.0
2018-Jun-18 00:30N 48°31' W 122°36'0 0.0
2018-Jun-18 00:00N 48°31' W 122°36'0 0.0
2018-Jun-17 23:18N 48°31' W 122°36'0 0.0
2018-Jun-17 23:00N 48°31' W 122°36'0 0.0
2018-Jun-17 22:30N 48°31' W 122°36'0 0.0
2018-Jun-17 22:00N 48°31' W 122°36'0 0.0
2018-Jun-17 21:30N 48°31' W 122°36'0 0.0
2018-Jun-17 21:00N 48°31' W 122°36'0 0.0
2018-Jun-17 20:24N 48°31' W 122°36'0 0.0
2018-Jun-17 19:48N 48°31' W 122°36'0 0.0
2018-Jun-17 19:30N 48°31' W 122°36'0 0.0
2018-Jun-17 18:48N 48°31' W 122°36'0 0.0
2018-Jun-17 18:30N 48°31' W 122°36'0 0.0
2018-Jun-17 18:00N 48°31' W 122°36'0 0.0
2018-Jun-17 17:24N 48°31' W 122°36'0 0.0
2018-Jun-17 17:00N 48°31' W 122°36'0 0.0
2018-Jun-17 16:30N 48°31' W 122°36'0 0.0
2018-Jun-17 15:24N 48°31' W 122°36'0 0.0
2018-Jun-17 15:00N 48°31' W 122°36'0 0.0
2018-Jun-17 14:30N 48°31' W 122°36'0 0.0
2018-Jun-17 13:48N 48°31' W 122°36'0 0.0
2018-Jun-17 13:30N 48°31' W 122°36'0 0.0
2018-Jun-17 12:48N 48°31' W 122°36'0 0.0
2018-Jun-17 12:30N 48°31' W 122°36'0 0.0
2018-Jun-17 11:54N 48°31' W 122°36'0 0.0
2018-Jun-17 11:18N 48°31' W 122°36'0 0.0
2018-Jun-17 10:54N 48°31' W 122°36'0 0.0
2018-Jun-17 10:18N 48°31' W 122°36'0 0.0
2018-Jun-17 10:00N 48°31' W 122°36'0 0.0
2018-Jun-17 09:30N 48°31' W 122°36'0 0.0
2018-Jun-17 09:00N 48°31' W 122°36'0 0.0
2018-Jun-17 08:30N 48°31' W 122°36'0 0.0
2018-Jun-17 07:54N 48°31' W 122°36'0 0.0
2018-Jun-17 07:24N 48°31' W 122°36'0 0.0
2018-Jun-17 07:00N 48°31' W 122°36'0 0.0
2018-Jun-17 05:48N 48°31' W 122°36'0 0.0
2018-Jun-17 05:24N 48°31' W 122°36'0 0.0
2018-Jun-17 05:00N 48°31' W 122°36'0 0.0
2018-Jun-17 04:30N 48°31' W 122°36'0 0.0
2018-Jun-17 04:00N 48°31' W 122°36'0 0.0
2018-Jun-17 03:30N 48°31' W 122°36'0 0.0
2018-Jun-17 03:00N 48°31' W 122°36'0 0.0
2018-Jun-17 02:18N 48°31' W 122°36'0 0.0
2018-Jun-17 02:00N 48°31' W 122°36'0 0.0
2018-Jun-17 01:30N 48°31' W 122°36'0 0.0
2018-Jun-17 01:00N 48°31' W 122°36'0 0.0
2018-Jun-17 00:30N 48°31' W 122°36'0 0.0
2018-Jun-17 00:00N 48°31' W 122°36'0 0.0
2018-Jun-16 23:30N 48°31' W 122°36'0 0.0
2018-Jun-16 23:00N 48°31' W 122°36'0 0.0
2018-Jun-16 22:30N 48°31' W 122°36'0 0.0
2018-Jun-16 22:00N 48°31' W 122°36'0 0.0
2018-Jun-16 21:30N 48°31' W 122°36'0 0.0
2018-Jun-16 20:48N 48°31' W 122°36'0 0.0
2018-Jun-16 20:24N 48°31' W 122°36'0 0.0
2018-Jun-16 20:00N 48°31' W 122°36'0 0.0
2018-Jun-16 19:30N 48°31' W 122°36'0 0.0
2018-Jun-16 19:00N 48°31' W 122°36'0 0.0
2018-Jun-16 18:30N 48°31' W 122°36'0 0.0
2018-Jun-16 18:00N 48°31' W 122°36'0 0.0
2018-Jun-16 17:18N 48°31' W 122°36'0 0.0
2018-Jun-16 16:54N 48°31' W 122°36'0 0.0
2018-Jun-16 16:30N 48°31' W 122°36'0 0.0
2018-Jun-16 15:54N 48°31' W 122°36'0 0.0
2018-Jun-16 15:24N 48°31' W 122°36'0 0.0
2018-Jun-16 15:00N 48°31' W 122°36'0 0.0
2018-Jun-16 14:30N 48°31' W 122°36'0 0.0
2018-Jun-16 13:24N 48°31' W 122°36'0 0.0
2018-Jun-16 13:00N 48°31' W 122°36'0 0.0
2018-Jun-16 12:24N 48°31' W 122°36'0 0.0
2018-Jun-16 12:00N 48°31' W 122°36'0 0.0
2018-Jun-16 11:30N 48°31' W 122°36'0 0.0
2018-Jun-16 10:54N 48°31' W 122°36'0 0.0
2018-Jun-16 10:30N 48°31' W 122°36'0 0.0
2018-Jun-16 10:00N 48°31' W 122°36'0 0.0
2018-Jun-16 09:30N 48°31' W 122°36'0 0.0
2018-Jun-16 08:48N 48°31' W 122°36'0 0.0
2018-Jun-16 08:24N 48°31' W 122°36'0 0.0
2018-Jun-16 08:00N 48°31' W 122°36'0 0.0
2018-Jun-16 07:24N 48°31' W 122°36'0 0.0
2018-Jun-16 07:00N 48°31' W 122°36'0 0.0
2018-Jun-16 06:30N 48°31' W 122°36'0 0.0
2018-Jun-16 06:00N 48°31' W 122°36'0 0.0
2018-Jun-16 05:30N 48°31' W 122°36'0 0.0
2018-Jun-16 04:54N 48°31' W 122°36'0 0.0
2018-Jun-16 04:24N 48°31' W 122°36'0 0.0
2018-Jun-16 04:00N 48°31' W 122°36'0 0.0
2018-Jun-16 03:30N 48°31' W 122°36'0 0.0
2018-Jun-16 03:00N 48°31' W 122°36'0 0.0
2018-Jun-16 02:30N 48°31' W 122°36'0 0.0
2018-Jun-16 02:00N 48°31' W 122°36'0 0.0
2018-Jun-16 01:24N 48°31' W 122°36'0 0.0
2018-Jun-16 01:00N 48°31' W 122°36'0 0.0
2018-Jun-16 00:30N 48°31' W 122°36'0 0.0
2018-Jun-16 00:00N 48°31' W 122°36'0 0.0
2018-Jun-15 23:30N 48°31' W 122°36'0 0.0
2018-Jun-15 22:54N 48°31' W 122°36'0 0.0
2018-Jun-15 22:30N 48°31' W 122°36'0 0.0
2018-Jun-15 21:54N 48°31' W 122°36'0 0.0
2018-Jun-15 21:18N 48°31' W 122°36'0 0.0
2018-Jun-15 20:54N 48°31' W 122°36'0 0.0
2018-Jun-15 20:30N 48°31' W 122°36'0 0.0
2018-Jun-15 19:42N 48°31' W 122°36'0 0.0
2018-Jun-15 19:30N 48°31' W 122°36'0 0.0
2018-Jun-15 19:00N 48°31' W 122°36'0 0.0
2018-Jun-15 18:24N 48°31' W 122°36'0 0.0
2018-Jun-15 17:48N 48°31' W 122°36'0 0.0
2018-Jun-15 17:30N 48°31' W 122°36'0 0.0
2018-Jun-15 17:00N 48°31' W 122°36'0 0.0
2018-Jun-15 16:18N 48°31' W 122°36'0 0.0
2018-Jun-15 16:00N 48°31' W 122°36'0 0.0
2018-Jun-15 15:18N 48°31' W 122°36'0 0.0
2018-Jun-15 15:00N 48°31' W 122°36'0 0.0
2018-Jun-15 14:18N 48°31' W 122°36'0 0.0
2018-Jun-15 13:49N 48°31' W 122°36'0 0.0
2018-Jun-15 13:19N 48°31' W 122°36'0 0.0
2018-Jun-15 12:55N 48°31' W 122°36'0 0.0
2018-Jun-15 12:25N 48°31' W 122°36'0 0.0
2018-Jun-15 11:55N 48°31' W 122°36'0 0.0
2018-Jun-15 11:25N 48°31' W 122°36'0 0.0
2018-Jun-15 10:55N 48°31' W 122°36'0 0.0
2018-Jun-15 10:25N 48°31' W 122°36'0 0.0
2018-Jun-15 09:55N 48°31' W 122°36'0 0.0
2018-Jun-15 09:25N 48°31' W 122°36'0 0.0
2018-Jun-15 08:55N 48°31' W 122°36'0 0.0
2018-Jun-15 08:25N 48°31' W 122°36'0 0.0
2018-Jun-15 07:49N 48°31' W 122°36'0 0.0
2018-Jun-15 07:25N 48°31' W 122°36'0 0.0
2018-Jun-15 06:55N 48°31' W 122°36'0 0.0
2018-Jun-15 06:25N 48°31' W 122°36'0 0.0
2018-Jun-15 05:55N 48°31' W 122°36'0 0.0
2018-Jun-15 05:19N 48°31' W 122°36'0 0.0
2018-Jun-15 04:55N 48°31' W 122°36'0 0.0
2018-Jun-15 04:19N 48°31' W 122°36'0 0.0
2018-Jun-15 03:55N 48°31' W 122°36'0 0.0
2018-Jun-15 03:19N 48°31' W 122°36'0 0.0
2018-Jun-15 02:55N 48°31' W 122°36'0 0.0
2018-Jun-15 02:25N 48°31' W 122°36'0 0.0
2018-Jun-15 01:55N 48°31' W 122°36'0 0.0
2018-Jun-15 01:25N 48°31' W 122°36'0 0.0
2018-Jun-15 00:49N 48°31' W 122°36'0 0.0
2018-Jun-15 00:25N 48°31' W 122°36'0 0.0
2018-Jun-14 23:55N 48°31' W 122°36'0 0.0
2018-Jun-14 23:25N 48°31' W 122°36'0 0.0
2018-Jun-14 22:49N 48°31' W 122°36'0 0.0
2018-Jun-14 22:25N 48°31' W 122°36'0 0.0
2018-Jun-14 21:55N 48°31' W 122°36'0 0.0
2018-Jun-14 21:25N 48°31' W 122°36'0 0.0
2018-Jun-14 20:55N 48°31' W 122°36'0 0.0
2018-Jun-14 20:19N 48°31' W 122°36'0 0.0
2018-Jun-14 19:55N 48°31' W 122°36'0 0.0
2018-Jun-14 19:19N 48°31' W 122°36'0 0.0
2018-Jun-14 18:55N 48°31' W 122°36'0 0.0
2018-Jun-14 18:25N 48°31' W 122°36'0 0.0
2018-Jun-14 17:55N 48°31' W 122°36'0 0.0
2018-Jun-14 17:25N 48°31' W 122°36'0 0.0
2018-Jun-14 16:55N 48°31' W 122°36'0 0.0
2018-Jun-14 16:25N 48°31' W 122°36'0 0.0
2018-Jun-14 15:55N 48°31' W 122°36'0 0.0
2018-Jun-14 15:25N 48°31' W 122°36'0 0.0
2018-Jun-14 14:55N 48°31' W 122°36'0 0.0
2018-Jun-14 14:25N 48°31' W 122°36'0 0.0
2018-Jun-14 13:55N 48°31' W 122°36'0 0.0
2018-Jun-14 13:25N 48°31' W 122°36'0 0.0
2018-Jun-14 12:55N 48°31' W 122°36'0 0.0
2018-Jun-14 12:25N 48°31' W 122°36'0 0.0
2018-Jun-14 11:55N 48°31' W 122°36'0 0.0
2018-Jun-14 11:25N 48°31' W 122°36'0 0.0
2018-Jun-14 10:55N 48°31' W 122°36'0 0.0
2018-Jun-14 10:25N 48°31' W 122°36'0 0.0
2018-Jun-14 09:55N 48°31' W 122°36'0 0.0
2018-Jun-14 09:25N 48°31' W 122°36'0 0.0
2018-Jun-14 08:55N 48°31' W 122°36'0 0.0
2018-Jun-14 08:07N 48°31' W 122°36'0 0.0
2018-Jun-14 07:49N 48°31' W 122°36'0 0.0
2018-Jun-14 07:25N 48°31' W 122°36'0 0.0
2018-Jun-14 06:37N 48°31' W 122°36'0 0.0
2018-Jun-14 06:19N 48°31' W 122°36'0 0.0
2018-Jun-14 05:55N 48°31' W 122°36'0 0.0
2018-Jun-14 05:25N 48°31' W 122°36'0 0.0
2018-Jun-14 04:49N 48°31' W 122°36'0 0.0
2018-Jun-14 04:25N 48°31' W 122°36'0 0.0
2018-Jun-14 03:55N 48°31' W 122°36'0 0.0
2018-Jun-14 02:43N 48°31' W 122°36'0 0.0
2018-Jun-14 02:25N 48°31' W 122°36'0 0.0
2018-Jun-14 01:55N 48°31' W 122°36'0 0.0
2018-Jun-14 01:19N 48°31' W 122°36'0 0.0
2018-Jun-14 00:55N 48°31' W 122°36'0 0.0
2018-Jun-14 00:25N 48°31' W 122°36'0 0.0
2018-Jun-13 23:55N 48°31' W 122°36'0 0.0
2018-Jun-13 23:25N 48°31' W 122°36'0 0.0
2018-Jun-13 22:55N 48°31' W 122°36'0 0.0
2018-Jun-13 22:25N 48°31' W 122°36'0 0.0
2018-Jun-13 21:49N 48°31' W 122°36'0 0.0
2018-Jun-13 21:13N 48°31' W 122°36'0 0.0
2018-Jun-13 20:55N 48°31' W 122°36'0 0.0
2018-Jun-13 20:25N 48°31' W 122°36'0 0.0
2018-Jun-13 19:55N 48°31' W 122°36'0 0.0
2018-Jun-13 19:19N 48°31' W 122°36'0 0.0
2018-Jun-13 18:55N 48°31' W 122°36'0 0.0
2018-Jun-13 18:25N 48°31' W 122°36'0 0.0
2018-Jun-13 17:49N 48°31' W 122°36'0 0.0
2018-Jun-13 17:19N 48°31' W 122°36'0 0.0
2018-Jun-13 16:55N 48°31' W 122°36'0 0.0
2018-Jun-13 16:19N 48°31' W 122°36'0 0.0
2018-Jun-13 15:55N 48°31' W 122°36'0 0.0
2018-Jun-13 15:07N 48°31' W 122°36'0 0.0
2018-Jun-13 14:49N 48°31' W 122°36'0 0.0
2018-Jun-13 14:25N 48°31' W 122°36'0 0.0
2018-Jun-13 13:49N 48°31' W 122°36'0 0.0
2018-Jun-13 13:19N 48°31' W 122°36'0 0.0
2018-Jun-13 12:55N 48°31' W 122°36'0 0.0
2018-Jun-13 12:25N 48°31' W 122°36'0 0.0
2018-Jun-13 11:55N 48°31' W 122°36'0 0.0
2018-Jun-13 11:25N 48°31' W 122°36'0 0.0
2018-Jun-13 10:55N 48°31' W 122°36'0 0.0
2018-Jun-13 10:19N 48°31' W 122°36'0 0.0
2018-Jun-13 09:55N 48°31' W 122°36'0 0.0
2018-Jun-13 09:25N 48°31' W 122°36'0 0.0
2018-Jun-13 08:55N 48°31' W 122°36'0 0.0
2018-Jun-13 08:25N 48°31' W 122°36'0 0.0
2018-Jun-13 07:55N 48°31' W 122°36'0 0.0
2018-Jun-13 07:25N 48°31' W 122°36'0 0.0
2018-Jun-13 06:49N 48°31' W 122°36'0 0.0
2018-Jun-13 06:25N 48°31' W 122°36'0 0.0
2018-Jun-13 05:55N 48°31' W 122°36'0 0.0
2018-Jun-13 05:25N 48°31' W 122°36'0 0.0
2018-Jun-13 04:49N 48°31' W 122°36'0 0.0
2018-Jun-13 04:25N 48°31' W 122°36'0 0.0
2018-Jun-13 03:55N 48°31' W 122°36'0 0.0
2018-Jun-13 03:19N 48°31' W 122°36'0 0.0
2018-Jun-13 02:55N 48°31' W 122°36'0 0.0
2018-Jun-13 02:19N 48°31' W 122°36'0 0.0
2018-Jun-13 01:49N 48°31' W 122°36'0 0.0
2018-Jun-13 01:25N 48°31' W 122°36'0 0.0
2018-Jun-13 00:49N 48°31' W 122°36'0 0.0
2018-Jun-13 00:25N 48°31' W 122°36'0 0.0
2018-Jun-12 23:55N 48°31' W 122°36'0 0.0
2018-Jun-12 23:29N 48°31' W 122°36'0 0.0
2018-Jun-12 22:59N 48°31' W 122°36'0 0.0
2018-Jun-12 22:29N 48°31' W 122°36'0 0.0
2018-Jun-12 21:59N 48°31' W 122°36'0 0.0
2018-Jun-12 21:29N 48°31' W 122°36'0 0.0
2018-Jun-12 20:55N 48°31' W 122°36'0 0.2
2018-Jun-12 20:29N 48°31' W 122°36'0 0.1
2018-Jun-12 19:59N 48°31' W 122°36'0 0.2
2018-Jun-12 19:27N 48°31' W 122°36'0 0.0
2018-Jun-12 18:57N 48°31' W 122°36'0 0.0
2018-Jun-12 18:27N 48°31' W 122°36'0 0.0
2018-Jun-12 17:57N 48°31' W 122°36'1 1.3
2018-Jun-12 17:27N 48°31' W 122°36'8 8.2
2018-Jun-12 16:27N 48°32' W 122°48'  

Dump ship's entire track history